sensor_id;sensor_type;location;lat;lon;timestamp;temperature;humidity
52963;DHT22;38827;53.024;6.596;2023-06-04T00:01:21;11.40;68.30
52963;DHT22;38827;53.024;6.596;2023-06-04T00:03:46;11.40;68.50
52963;DHT22;38827;53.024;6.596;2023-06-04T00:06:12;11.40;68.80
52963;DHT22;38827;53.024;6.596;2023-06-04T00:08:38;11.30;69.00
52963;DHT22;38827;53.024;6.596;2023-06-04T00:11:04;11.30;69.30
52963;DHT22;38827;53.024;6.596;2023-06-04T00:13:29;11.30;69.40
52963;DHT22;38827;53.024;6.596;2023-06-04T00:15:55;11.20;69.50
52963;DHT22;38827;53.024;6.596;2023-06-04T00:18:21;11.20;69.70
52963;DHT22;38827;53.024;6.596;2023-06-04T00:20:49;11.20;69.70
52963;DHT22;38827;53.024;6.596;2023-06-04T00:23:15;11.20;69.90
52963;DHT22;38827;53.024;6.596;2023-06-04T00:25:41;11.20;69.80
52963;DHT22;38827;53.024;6.596;2023-06-04T00:28:06;11.20;70.00
52963;DHT22;38827;53.024;6.596;2023-06-04T00:30:32;11.20;70.10
52963;DHT22;38827;53.024;6.596;2023-06-04T00:32:58;11.20;70.30
52963;DHT22;38827;53.024;6.596;2023-06-04T00:35:24;11.20;70.40
52963;DHT22;38827;53.024;6.596;2023-06-04T00:37:49;11.10;70.50
52963;DHT22;38827;53.024;6.596;2023-06-04T00:40:15;11.10;70.70
52963;DHT22;38827;53.024;6.596;2023-06-04T00:42:41;11.10;70.70
52963;DHT22;38827;53.024;6.596;2023-06-04T00:45:07;11.10;70.80
52963;DHT22;38827;53.024;6.596;2023-06-04T00:47:35;11.00;70.90
52963;DHT22;38827;53.024;6.596;2023-06-04T00:50:01;11.00;71.00
52963;DHT22;38827;53.024;6.596;2023-06-04T00:52:27;11.00;71.40
52963;DHT22;38827;53.024;6.596;2023-06-04T00:54:53;10.90;71.50
52963;DHT22;38827;53.024;6.596;2023-06-04T00:57:23;10.90;71.80
52963;DHT22;38827;53.024;6.596;2023-06-04T00:59:49;10.90;71.80
52963;DHT22;38827;53.024;6.596;2023-06-04T01:02:21;10.90;72.00
52963;DHT22;38827;53.024;6.596;2023-06-04T01:07:35;10.80;72.10
52963;DHT22;38827;53.024;6.596;2023-06-04T01:10:01;10.80;72.20
52963;DHT22;38827;53.024;6.596;2023-06-04T01:12:26;10.70;72.40
52963;DHT22;38827;53.024;6.596;2023-06-04T01:14:52;10.70;72.60
52963;DHT22;38827;53.024;6.596;2023-06-04T01:17:23;10.70;72.70
52963;DHT22;38827;53.024;6.596;2023-06-04T01:25:36;10.60;72.90
52963;DHT22;38827;53.024;6.596;2023-06-04T01:34:23;10.70;73.40
52963;DHT22;38827;53.024;6.596;2023-06-04T01:36:55;10.60;73.50
52963;DHT22;38827;53.024;6.596;2023-06-04T01:39:40;10.60;73.50
52963;DHT22;38827;53.024;6.596;2023-06-04T01:42:06;10.60;73.50
52963;DHT22;38827;53.024;6.596;2023-06-04T01:44:32;10.60;73.80
52963;DHT22;38827;53.024;6.596;2023-06-04T01:46:58;10.60;73.80
52963;DHT22;38827;53.024;6.596;2023-06-04T01:49:23;10.60;74.00
52963;DHT22;38827;53.024;6.596;2023-06-04T01:51:49;10.50;74.20
52963;DHT22;38827;53.024;6.596;2023-06-04T01:54:15;10.50;74.30
52963;DHT22;38827;53.024;6.596;2023-06-04T01:56:42;10.50;74.40
52963;DHT22;38827;53.024;6.596;2023-06-04T01:59:07;10.50;74.50
52963;DHT22;38827;53.024;6.596;2023-06-04T02:01:33;10.50;74.70
52963;DHT22;38827;53.024;6.596;2023-06-04T02:03:59;10.40;74.90
52963;DHT22;38827;53.024;6.596;2023-06-04T02:06:25;10.40;75.20
52963;DHT22;38827;53.024;6.596;2023-06-04T02:08:55;10.40;75.40
52963;DHT22;38827;53.024;6.596;2023-06-04T02:11:21;10.40;75.50
52963;DHT22;38827;53.024;6.596;2023-06-04T02:13:47;10.40;75.60
52963;DHT22;38827;53.024;6.596;2023-06-04T02:16:13;10.40;75.80
52963;DHT22;38827;53.024;6.596;2023-06-04T02:18:39;10.40;76.00
52963;DHT22;38827;53.024;6.596;2023-06-04T02:21:08;10.40;76.00
52963;DHT22;38827;53.024;6.596;2023-06-04T02:23:34;10.40;76.10
52963;DHT22;38827;53.024;6.596;2023-06-04T02:25:59;10.30;76.20
52963;DHT22;38827;53.024;6.596;2023-06-04T02:28:25;10.30;76.30
52963;DHT22;38827;53.024;6.596;2023-06-04T02:30:51;10.30;76.40
52963;DHT22;38827;53.024;6.596;2023-06-04T02:33:16;10.30;76.40
52963;DHT22;38827;53.024;6.596;2023-06-04T02:35:42;10.20;76.40
52963;DHT22;38827;53.024;6.596;2023-06-04T02:38:08;10.20;76.50
52963;DHT22;38827;53.024;6.596;2023-06-04T02:40:34;10.20;76.40
52963;DHT22;38827;53.024;6.596;2023-06-04T02:42:59;10.20;76.40
52963;DHT22;38827;53.024;6.596;2023-06-04T02:45:27;10.10;76.40
52963;DHT22;38827;53.024;6.596;2023-06-04T02:47:54;10.10;76.40
52963;DHT22;38827;53.024;6.596;2023-06-04T02:50:20;10.00;76.30
52963;DHT22;38827;53.024;6.596;2023-06-04T02:52:46;10.00;76.30
52963;DHT22;38827;53.024;6.596;2023-06-04T02:55:12;10.00;76.40
52963;DHT22;38827;53.024;6.596;2023-06-04T02:57:40;9.90;76.60
52963;DHT22;38827;53.024;6.596;2023-06-04T03:00:07;9.90;76.80
52963;DHT22;38827;53.024;6.596;2023-06-04T03:02:39;9.90;77.00
52963;DHT22;38827;53.024;6.596;2023-06-04T03:05:07;9.90;77.20
52963;DHT22;38827;53.024;6.596;2023-06-04T03:07:44;9.90;77.30
52963;DHT22;38827;53.024;6.596;2023-06-04T03:10:12;9.90;77.30
52963;DHT22;38827;53.024;6.596;2023-06-04T03:12:38;9.90;77.50
52963;DHT22;38827;53.024;6.596;2023-06-04T03:15:04;9.90;77.60
52963;DHT22;38827;53.024;6.596;2023-06-04T03:17:30;9.90;77.70
52963;DHT22;38827;53.024;6.596;2023-06-04T03:19:57;9.90;77.80
52963;DHT22;38827;53.024;6.596;2023-06-04T03:22:23;9.90;77.70
52963;DHT22;38827;53.024;6.596;2023-06-04T03:24:49;9.90;77.80
52963;DHT22;38827;53.024;6.596;2023-06-04T03:27:14;9.90;77.80
52963;DHT22;38827;53.024;6.596;2023-06-04T03:29:40;9.90;77.90
52963;DHT22;38827;53.024;6.596;2023-06-04T03:32:06;9.90;77.90
52963;DHT22;38827;53.024;6.596;2023-06-04T03:34:32;9.90;77.90
52963;DHT22;38827;53.024;6.596;2023-06-04T03:36:58;9.90;77.90
52963;DHT22;38827;53.024;6.596;2023-06-04T03:39:25;9.90;78.00
52963;DHT22;38827;53.024;6.596;2023-06-04T03:41:51;9.90;78.00
52963;DHT22;38827;53.024;6.596;2023-06-04T03:44:17;9.90;78.00
52963;DHT22;38827;53.024;6.596;2023-06-04T03:46:44;9.90;78.20
52963;DHT22;38827;53.024;6.596;2023-06-04T03:49:10;9.90;78.00
52963;DHT22;38827;53.024;6.596;2023-06-04T03:51:37;10.00;78.00
52963;DHT22;38827;53.024;6.596;2023-06-04T03:54:03;10.00;78.10
52963;DHT22;38827;53.024;6.596;2023-06-04T03:56:29;10.00;78.10
52963;DHT22;38827;53.024;6.596;2023-06-04T03:58:54;10.00;78.20
52963;DHT22;38827;53.024;6.596;2023-06-04T04:01:21;10.00;78.40
52963;DHT22;38827;53.024;6.596;2023-06-04T04:03:50;10.00;78.60
52963;DHT22;38827;53.024;6.596;2023-06-04T04:06:16;10.10;78.70
52963;DHT22;38827;53.024;6.596;2023-06-04T04:08:42;10.10;78.90
52963;DHT22;38827;53.024;6.596;2023-06-04T04:11:15;10.10;78.70
52963;DHT22;38827;53.024;6.596;2023-06-04T04:13:41;10.20;78.80
52963;DHT22;38827;53.024;6.596;2023-06-04T04:16:07;10.20;78.90
52963;DHT22;38827;53.024;6.596;2023-06-04T04:18:35;10.30;79.10
52963;DHT22;38827;53.024;6.596;2023-06-04T04:21:02;10.40;79.20
52963;DHT22;38827;53.024;6.596;2023-06-04T04:23:29;10.40;79.30
52963;DHT22;38827;53.024;6.596;2023-06-04T04:25:56;10.50;79.30
52963;DHT22;38827;53.024;6.596;2023-06-04T04:28:25;10.60;79.30
52963;DHT22;38827;53.024;6.596;2023-06-04T04:30:54;10.70;79.20
52963;DHT22;38827;53.024;6.596;2023-06-04T04:33:20;10.80;79.10
52963;DHT22;38827;53.024;6.596;2023-06-04T04:35:45;10.90;78.90
52963;DHT22;38827;53.024;6.596;2023-06-04T04:38:13;11.00;78.90
52963;DHT22;38827;53.024;6.596;2023-06-04T04:40:39;11.10;79.00
52963;DHT22;38827;53.024;6.596;2023-06-04T04:43:04;11.20;79.00
52963;DHT22;38827;53.024;6.596;2023-06-04T04:45:30;11.30;78.90
52963;DHT22;38827;53.024;6.596;2023-06-04T04:47:56;11.40;78.80
52963;DHT22;38827;53.024;6.596;2023-06-04T04:50:21;11.40;78.60
52963;DHT22;38827;53.024;6.596;2023-06-04T04:52:50;11.60;78.50
52963;DHT22;38827;53.024;6.596;2023-06-04T04:55:16;11.60;78.30
52963;DHT22;38827;53.024;6.596;2023-06-04T04:57:45;11.70;78.20
52963;DHT22;38827;53.024;6.596;2023-06-04T05:00:11;11.90;78.10
52963;DHT22;38827;53.024;6.596;2023-06-04T05:02:37;12.00;78.00
52963;DHT22;38827;53.024;6.596;2023-06-04T05:05:03;12.10;77.90
52963;DHT22;38827;53.024;6.596;2023-06-04T05:07:29;12.20;77.90
52963;DHT22;38827;53.024;6.596;2023-06-04T05:09:55;12.30;77.80
52963;DHT22;38827;53.024;6.596;2023-06-04T05:12:21;12.40;77.60
52963;DHT22;38827;53.024;6.596;2023-06-04T05:14:47;12.50;77.60
52963;DHT22;38827;53.024;6.596;2023-06-04T05:17:12;12.60;77.50
52963;DHT22;38827;53.024;6.596;2023-06-04T05:19:39;12.70;77.50
52963;DHT22;38827;53.024;6.596;2023-06-04T05:22:04;12.80;77.40
52963;DHT22;38827;53.024;6.596;2023-06-04T05:24:31;12.90;77.50
52963;DHT22;38827;53.024;6.596;2023-06-04T05:34:53;13.40;76.80
52963;DHT22;38827;53.024;6.596;2023-06-04T05:37:31;13.50;76.70
52963;DHT22;38827;53.024;6.596;2023-06-04T05:40:11;13.60;76.60
52963;DHT22;38827;53.024;6.596;2023-06-04T05:42:38;13.70;76.40
52963;DHT22;38827;53.024;6.596;2023-06-04T05:45:05;13.80;76.20
52963;DHT22;38827;53.024;6.596;2023-06-04T05:47:31;13.90;75.90
52963;DHT22;38827;53.024;6.596;2023-06-04T05:49:57;14.00;75.70
52963;DHT22;38827;53.024;6.596;2023-06-04T05:52:23;14.10;75.50
52963;DHT22;38827;53.024;6.596;2023-06-04T05:54:49;14.20;75.20
52963;DHT22;38827;53.024;6.596;2023-06-04T05:57:14;14.30;75.00
52963;DHT22;38827;53.024;6.596;2023-06-04T05:59:40;14.30;74.50
52963;DHT22;38827;53.024;6.596;2023-06-04T06:02:06;14.40;74.10
52963;DHT22;38827;53.024;6.596;2023-06-04T06:04:32;14.60;73.70
52963;DHT22;38827;53.024;6.596;2023-06-04T06:06:58;14.60;73.20
52963;DHT22;38827;53.024;6.596;2023-06-04T06:09:24;14.70;72.80
52963;DHT22;38827;53.024;6.596;2023-06-04T06:11:49;14.80;72.10
52963;DHT22;38827;53.024;6.596;2023-06-04T06:14:15;14.90;71.10
52963;DHT22;38827;53.024;6.596;2023-06-04T06:16:41;15.00;70.50
52963;DHT22;38827;53.024;6.596;2023-06-04T06:19:07;15.00;70.20
52963;DHT22;38827;53.024;6.596;2023-06-04T06:21:32;15.10;69.50
52963;DHT22;38827;53.024;6.596;2023-06-04T06:23:58;15.10;69.00
52963;DHT22;38827;53.024;6.596;2023-06-04T06:26:24;15.10;68.90
52963;DHT22;38827;53.024;6.596;2023-06-04T06:28:51;15.10;68.60
52963;DHT22;38827;53.024;6.596;2023-06-04T06:31:16;15.20;68.40
52963;DHT22;38827;53.024;6.596;2023-06-04T06:33:42;15.20;68.20
52963;DHT22;38827;53.024;6.596;2023-06-04T06:36:10;15.20;68.20
52963;DHT22;38827;53.024;6.596;2023-06-04T06:38:37;15.40;68.10
52963;DHT22;38827;53.024;6.596;2023-06-04T06:41:03;15.50;67.80
52963;DHT22;38827;53.024;6.596;2023-06-04T06:43:30;15.60;67.60
52963;DHT22;38827;53.024;6.596;2023-06-04T06:46:00;15.70;67.00
52963;DHT22;38827;53.024;6.596;2023-06-04T06:48:25;15.80;66.40
52963;DHT22;38827;53.024;6.596;2023-06-04T06:50:51;15.90;65.60
52963;DHT22;38827;53.024;6.596;2023-06-04T06:53:17;15.90;65.30
52963;DHT22;38827;53.024;6.596;2023-06-04T06:55:42;15.90;65.00
52963;DHT22;38827;53.024;6.596;2023-06-04T06:58:08;16.00;64.80
52963;DHT22;38827;53.024;6.596;2023-06-04T07:00:33;16.20;64.20
52963;DHT22;38827;53.024;6.596;2023-06-04T07:02:59;16.20;64.00
52963;DHT22;38827;53.024;6.596;2023-06-04T07:05:25;16.40;63.80
52963;DHT22;38827;53.024;6.596;2023-06-04T07:07:51;16.50;63.50
52963;DHT22;38827;53.024;6.596;2023-06-04T07:10:18;16.60;62.70
52963;DHT22;38827;53.024;6.596;2023-06-04T07:12:43;16.70;62.60
52963;DHT22;38827;53.024;6.596;2023-06-04T07:15:10;16.70;62.70
52963;DHT22;38827;53.024;6.596;2023-06-04T07:17:37;16.90;62.10
52963;DHT22;38827;53.024;6.596;2023-06-04T07:20:03;17.00;61.70
52963;DHT22;38827;53.024;6.596;2023-06-04T07:22:32;17.10;61.10
52963;DHT22;38827;53.024;6.596;2023-06-04T07:24:58;17.20;60.50
52963;DHT22;38827;53.024;6.596;2023-06-04T07:27:23;17.30;60.40
52963;DHT22;38827;53.024;6.596;2023-06-04T07:29:49;17.50;60.50
52963;DHT22;38827;53.024;6.596;2023-06-04T07:32:15;17.60;59.90
52963;DHT22;38827;53.024;6.596;2023-06-04T07:34:40;17.90;59.20
52963;DHT22;38827;53.024;6.596;2023-06-04T07:37:06;18.00;58.10
52963;DHT22;38827;53.024;6.596;2023-06-04T07:39:33;18.10;57.80
52963;DHT22;38827;53.024;6.596;2023-06-04T07:41:58;18.30;57.40
52963;DHT22;38827;53.024;6.596;2023-06-04T07:44:24;18.40;57.10
52963;DHT22;38827;53.024;6.596;2023-06-04T07:46:50;18.60;56.70
52963;DHT22;38827;53.024;6.596;2023-06-04T07:49:15;18.70;55.60
52963;DHT22;38827;53.024;6.596;2023-06-04T07:51:49;18.80;54.90
52963;DHT22;38827;53.024;6.596;2023-06-04T07:54:16;18.90;54.30
52963;DHT22;38827;53.024;6.596;2023-06-04T07:56:42;18.90;53.90
52963;DHT22;38827;53.024;6.596;2023-06-04T07:59:08;19.00;53.50
52963;DHT22;38827;53.024;6.596;2023-06-04T08:01:34;19.10;52.80
52963;DHT22;38827;53.024;6.596;2023-06-04T08:04:00;19.20;51.90
52963;DHT22;38827;53.024;6.596;2023-06-04T08:06:28;19.30;51.10
52963;DHT22;38827;53.024;6.596;2023-06-04T08:08:57;19.30;50.50
52963;DHT22;38827;53.024;6.596;2023-06-04T08:11:24;19.40;50.30
52963;DHT22;38827;53.024;6.596;2023-06-04T08:13:50;19.50;50.40
52963;DHT22;38827;53.024;6.596;2023-06-04T08:16:15;19.60;50.00
52963;DHT22;38827;53.024;6.596;2023-06-04T08:18:42;19.80;50.20
52963;DHT22;38827;53.024;6.596;2023-06-04T08:21:11;20.00;49.00
52963;DHT22;38827;53.024;6.596;2023-06-04T08:23:37;20.20;47.70
52963;DHT22;38827;53.024;6.596;2023-06-04T08:26:03;20.40;46.90
52963;DHT22;38827;53.024;6.596;2023-06-04T08:28:29;20.60;45.90
52963;DHT22;38827;53.024;6.596;2023-06-04T08:30:54;20.70;45.50
52963;DHT22;38827;53.024;6.596;2023-06-04T08:33:20;20.80;44.50
52963;DHT22;38827;53.024;6.596;2023-06-04T08:35:46;20.90;43.80
52963;DHT22;38827;53.024;6.596;2023-06-04T08:38:12;21.00;43.40
52963;DHT22;38827;53.024;6.596;2023-06-04T08:40:37;21.10;42.30
52963;DHT22;38827;53.024;6.596;2023-06-04T08:43:04;21.30;42.10
52963;DHT22;38827;53.024;6.596;2023-06-04T08:45:32;21.20;41.70
52963;DHT22;38827;53.024;6.596;2023-06-04T08:47:59;21.30;41.60
52963;DHT22;38827;53.024;6.596;2023-06-04T08:50:25;21.40;41.00
52963;DHT22;38827;53.024;6.596;2023-06-04T08:52:54;21.50;41.10
52963;DHT22;38827;53.024;6.596;2023-06-04T08:55:22;22.00;41.60
52963;DHT22;38827;53.024;6.596;2023-06-04T08:57:52;21.90;41.10
52963;DHT22;38827;53.024;6.596;2023-06-04T09:02:50;22.20;40.60
52963;DHT22;38827;53.024;6.596;2023-06-04T09:05:21;22.40;39.90
52963;DHT22;38827;53.024;6.596;2023-06-04T09:07:47;22.50;39.30
52963;DHT22;38827;53.024;6.596;2023-06-04T09:10:18;22.60;39.30
52963;DHT22;38827;53.024;6.596;2023-06-04T09:12:46;22.80;39.10
52963;DHT22;38827;53.024;6.596;2023-06-04T09:15:12;22.80;39.00
52963;DHT22;38827;53.024;6.596;2023-06-04T09:17:38;22.80;39.50
52963;DHT22;38827;53.024;6.596;2023-06-04T09:20:05;22.90;39.30
52963;DHT22;38827;53.024;6.596;2023-06-04T09:22:38;22.90;38.60
52963;DHT22;38827;53.024;6.596;2023-06-04T09:25:06;23.00;38.70
52963;DHT22;38827;53.024;6.596;2023-06-04T09:27:40;23.10;38.90
52963;DHT22;38827;53.024;6.596;2023-06-04T09:30:06;23.40;38.40
52963;DHT22;38827;53.024;6.596;2023-06-04T09:32:33;23.50;38.10
52963;DHT22;38827;53.024;6.596;2023-06-04T09:41:16;23.70;38.50
52963;DHT22;38827;53.024;6.596;2023-06-04T09:43:42;23.70;39.10
52963;DHT22;38827;53.024;6.596;2023-06-04T09:48:35;23.90;39.10
52963;DHT22;38827;53.024;6.596;2023-06-04T09:53:38;24.20;38.60
52963;DHT22;38827;53.024;6.596;2023-06-04T09:56:04;24.30;38.40
52963;DHT22;38827;53.024;6.596;2023-06-04T09:58:32;24.40;38.00
52963;DHT22;38827;53.024;6.596;2023-06-04T10:00:59;24.50;37.60
52963;DHT22;38827;53.024;6.596;2023-06-04T10:03:25;24.60;37.60
52963;DHT22;38827;53.024;6.596;2023-06-04T10:05:56;24.80;37.30
52963;DHT22;38827;53.024;6.596;2023-06-04T10:08:23;24.90;37.20
52963;DHT22;38827;53.024;6.596;2023-06-04T10:10:51;24.90;37.20
52963;DHT22;38827;53.024;6.596;2023-06-04T10:13:21;25.00;36.70
52963;DHT22;38827;53.024;6.596;2023-06-04T10:15:49;25.10;36.40
52963;DHT22;38827;53.024;6.596;2023-06-04T10:18:16;25.10;36.40
52963;DHT22;38827;53.024;6.596;2023-06-04T10:20:42;25.00;36.30
52963;DHT22;38827;53.024;6.596;2023-06-04T10:23:08;25.00;36.30
52963;DHT22;38827;53.024;6.596;2023-06-04T10:25:38;25.10;36.50
52963;DHT22;38827;53.024;6.596;2023-06-04T10:28:04;25.20;36.30
52963;DHT22;38827;53.024;6.596;2023-06-04T10:30:39;25.40;36.20
52963;DHT22;38827;53.024;6.596;2023-06-04T10:33:05;25.50;35.80
52963;DHT22;38827;53.024;6.596;2023-06-04T10:35:35;25.60;35.60
52963;DHT22;38827;53.024;6.596;2023-06-04T10:38:09;25.80;35.70
52963;DHT22;38827;53.024;6.596;2023-06-04T10:40:35;25.90;35.50
52963;DHT22;38827;53.024;6.596;2023-06-04T10:43:12;26.00;35.50
52963;DHT22;38827;53.024;6.596;2023-06-04T10:45:39;26.10;35.00
52963;DHT22;38827;53.024;6.596;2023-06-04T10:48:10;26.20;35.30
52963;DHT22;38827;53.024;6.596;2023-06-04T10:50:48;26.30;34.10
52963;DHT22;38827;53.024;6.596;2023-06-04T10:53:15;26.30;34.30
52963;DHT22;38827;53.024;6.596;2023-06-04T10:55:46;26.40;34.30
52963;DHT22;38827;53.024;6.596;2023-06-04T10:58:12;26.50;34.10
52963;DHT22;38827;53.024;6.596;2023-06-04T11:00:46;26.50;34.40
52963;DHT22;38827;53.024;6.596;2023-06-04T11:03:15;26.60;33.90
52963;DHT22;38827;53.024;6.596;2023-06-04T11:05:47;26.70;33.90
52963;DHT22;38827;53.024;6.596;2023-06-04T11:08:13;26.90;33.40
52963;DHT22;38827;53.024;6.596;2023-06-04T11:10:46;26.90;33.30
52963;DHT22;38827;53.024;6.596;2023-06-04T11:13:12;26.90;33.10
52963;DHT22;38827;53.024;6.596;2023-06-04T11:15:47;27.00;33.50
52963;DHT22;38827;53.024;6.596;2023-06-04T11:18:15;27.10;33.90
52963;DHT22;38827;53.024;6.596;2023-06-04T11:20:41;27.20;34.20
52963;DHT22;38827;53.024;6.596;2023-06-04T11:23:14;27.30;33.30
52963;DHT22;38827;53.024;6.596;2023-06-04T11:25:41;27.40;33.40
52963;DHT22;38827;53.024;6.596;2023-06-04T11:28:15;27.50;32.80
52963;DHT22;38827;53.024;6.596;2023-06-04T11:30:42;27.60;32.10
52963;DHT22;38827;53.024;6.596;2023-06-04T11:33:08;27.70;32.20
52963;DHT22;38827;53.024;6.596;2023-06-04T11:35:42;27.60;32.30
52963;DHT22;38827;53.024;6.596;2023-06-04T11:38:09;27.60;32.40
52963;DHT22;38827;53.024;6.596;2023-06-04T11:43:11;27.60;32.70
52963;DHT22;38827;53.024;6.596;2023-06-04T11:45:37;27.60;33.00
52963;DHT22;38827;53.024;6.596;2023-06-04T11:48:04;27.60;32.90
52963;DHT22;38827;53.024;6.596;2023-06-04T11:50:31;27.60;32.60
52963;DHT22;38827;53.024;6.596;2023-06-04T11:52:57;27.60;32.30
52963;DHT22;38827;53.024;6.596;2023-06-04T11:58:37;27.60;32.60
52963;DHT22;38827;53.024;6.596;2023-06-04T12:10:15;27.90;33.20
52963;DHT22;38827;53.024;6.596;2023-06-04T12:15:59;28.20;32.20
52963;DHT22;38827;53.024;6.596;2023-06-04T12:22:06;28.20;32.80
52963;DHT22;38827;53.024;6.596;2023-06-04T12:25:26;28.20;32.30
52963;DHT22;38827;53.024;6.596;2023-06-04T12:27:52;28.30;32.80
52963;DHT22;38827;53.024;6.596;2023-06-04T12:30:21;28.30;32.60
52963;DHT22;38827;53.024;6.596;2023-06-04T12:32:53;28.40;32.30
52963;DHT22;38827;53.024;6.596;2023-06-04T12:35:24;28.50;32.20
52963;DHT22;38827;53.024;6.596;2023-06-04T12:37:50;28.50;32.20
52963;DHT22;38827;53.024;6.596;2023-06-04T12:42:51;28.30;32.40
52963;DHT22;38827;53.024;6.596;2023-06-04T12:52:57;28.10;32.50
52963;DHT22;38827;53.024;6.596;2023-06-04T13:20:06;27.90;33.80
52963;DHT22;38827;53.024;6.596;2023-06-04T13:22:32;27.90;33.50
52963;DHT22;38827;53.024;6.596;2023-06-04T13:24:58;27.80;33.10
52963;DHT22;38827;53.024;6.596;2023-06-04T13:27:24;27.70;33.50
52963;DHT22;38827;53.024;6.596;2023-06-04T13:29:50;27.70;33.40
52963;DHT22;38827;53.024;6.596;2023-06-04T13:32:15;27.60;33.80
52963;DHT22;38827;53.024;6.596;2023-06-04T13:34:41;27.60;33.80
52963;DHT22;38827;53.024;6.596;2023-06-04T13:37:07;27.60;33.80
52963;DHT22;38827;53.024;6.596;2023-06-04T13:39:36;27.50;33.70
52963;DHT22;38827;53.024;6.596;2023-06-04T13:42:02;27.40;33.80
52963;DHT22;38827;53.024;6.596;2023-06-04T13:44:27;27.50;34.00
52963;DHT22;38827;53.024;6.596;2023-06-04T13:46:54;27.40;33.60
52963;DHT22;38827;53.024;6.596;2023-06-04T13:49:20;27.40;33.80
52963;DHT22;38827;53.024;6.596;2023-06-04T13:51:46;27.30;33.70
52963;DHT22;38827;53.024;6.596;2023-06-04T13:54:12;27.30;34.00
52963;DHT22;38827;53.024;6.596;2023-06-04T13:56:40;27.20;34.00
52963;DHT22;38827;53.024;6.596;2023-06-04T14:23:07;26.80;34.70
52963;DHT22;38827;53.024;6.596;2023-06-04T14:25:42;26.70;34.80
52963;DHT22;38827;53.024;6.596;2023-06-04T14:31:50;26.40;35.30
52963;DHT22;38827;53.024;6.596;2023-06-04T14:41:20;26.20;36.20
52963;DHT22;38827;53.024;6.596;2023-06-04T14:44:00;26.20;36.30
52963;DHT22;38827;53.024;6.596;2023-06-04T14:46:45;26.20;36.70
52963;DHT22;38827;53.024;6.596;2023-06-04T14:49:10;26.20;36.80
52963;DHT22;38827;53.024;6.596;2023-06-04T14:51:45;26.10;36.80
52963;DHT22;38827;53.024;6.596;2023-06-04T14:56:55;25.70;37.10
52963;DHT22;38827;53.024;6.596;2023-06-04T15:02:46;25.30;37.60
52963;DHT22;38827;53.024;6.596;2023-06-04T15:05:12;25.00;38.00
52963;DHT22;38827;53.024;6.596;2023-06-04T15:07:37;24.90;38.00
52963;DHT22;38827;53.024;6.596;2023-06-04T15:10:04;24.80;38.20
52963;DHT22;38827;53.024;6.596;2023-06-04T15:37:53;23.60;40.00
52963;DHT22;38827;53.024;6.596;2023-06-04T15:40:18;23.40;40.30
52963;DHT22;38827;53.024;6.596;2023-06-04T15:42:59;23.30;40.20
52963;DHT22;38827;53.024;6.596;2023-06-04T15:45:34;23.20;40.00
52963;DHT22;38827;53.024;6.596;2023-06-04T15:48:00;23.10;40.50
52963;DHT22;38827;53.024;6.596;2023-06-04T15:50:25;23.00;40.50
52963;DHT22;38827;53.024;6.596;2023-06-04T15:52:51;23.00;40.30
52963;DHT22;38827;53.024;6.596;2023-06-04T15:55:17;22.90;40.50
52963;DHT22;38827;53.024;6.596;2023-06-04T15:58:13;22.80;41.10
52963;DHT22;38827;53.024;6.596;2023-06-04T16:00:41;22.70;41.40
52963;DHT22;38827;53.024;6.596;2023-06-04T16:03:17;22.60;41.40
52963;DHT22;38827;53.024;6.596;2023-06-04T16:05:43;22.40;41.80
52963;DHT22;38827;53.024;6.596;2023-06-04T16:08:08;22.30;42.00
52963;DHT22;38827;53.024;6.596;2023-06-04T16:10:34;22.20;42.20
52963;DHT22;38827;53.024;6.596;2023-06-04T16:13:00;22.20;42.10
52963;DHT22;38827;53.024;6.596;2023-06-04T16:15:25;22.10;42.30
52963;DHT22;38827;53.024;6.596;2023-06-04T16:21:15;21.90;42.70
52963;DHT22;38827;53.024;6.596;2023-06-04T16:38:27;21.00;43.80
52963;DHT22;38827;53.024;6.596;2023-06-04T16:40:55;20.80;44.00
52963;DHT22;38827;53.024;6.596;2023-06-04T16:43:55;20.70;44.20
52963;DHT22;38827;53.024;6.596;2023-06-04T16:46:33;20.60;44.90
52963;DHT22;38827;53.024;6.596;2023-06-04T16:49:02;20.40;45.00
52963;DHT22;38827;53.024;6.596;2023-06-04T16:51:46;20.30;45.50
52963;DHT22;38827;53.024;6.596;2023-06-04T16:54:11;20.20;45.70
52963;DHT22;38827;53.024;6.596;2023-06-04T16:56:37;20.10;45.80
52963;DHT22;38827;53.024;6.596;2023-06-04T16:59:03;20.00;46.00
52963;DHT22;38827;53.024;6.596;2023-06-04T17:01:29;19.90;46.10
52963;DHT22;38827;53.024;6.596;2023-06-04T17:03:55;19.80;46.40
52963;DHT22;38827;53.024;6.596;2023-06-04T17:06:20;19.60;46.50
52963;DHT22;38827;53.024;6.596;2023-06-04T17:08:47;19.50;46.60
52963;DHT22;38827;53.024;6.596;2023-06-04T17:11:12;19.30;47.00
52963;DHT22;38827;53.024;6.596;2023-06-04T17:13:38;19.30;47.30
52963;DHT22;38827;53.024;6.596;2023-06-04T17:16:04;19.20;47.20
52963;DHT22;38827;53.024;6.596;2023-06-04T17:18:29;19.10;47.40
52963;DHT22;38827;53.024;6.596;2023-06-04T17:20:55;19.00;47.50
52963;DHT22;38827;53.024;6.596;2023-06-04T17:23:23;18.90;47.70
52963;DHT22;38827;53.024;6.596;2023-06-04T17:25:49;18.90;47.80
52963;DHT22;38827;53.024;6.596;2023-06-04T17:28:15;18.70;47.80
52963;DHT22;38827;53.024;6.596;2023-06-04T17:30:41;18.60;48.10
52963;DHT22;38827;53.024;6.596;2023-06-04T17:33:08;18.50;48.40
52963;DHT22;38827;53.024;6.596;2023-06-04T17:35:35;18.50;48.70
52963;DHT22;38827;53.024;6.596;2023-06-04T17:38:01;18.40;48.90
52963;DHT22;38827;53.024;6.596;2023-06-04T17:50:50;17.80;50.10
52963;DHT22;38827;53.024;6.596;2023-06-04T17:53:16;17.80;50.60
52963;DHT22;38827;53.024;6.596;2023-06-04T17:55:53;17.70;50.80
52963;DHT22;38827;53.024;6.596;2023-06-04T17:58:22;17.60;51.00
52963;DHT22;38827;53.024;6.596;2023-06-04T18:01:06;17.60;51.20
52963;DHT22;38827;53.024;6.596;2023-06-04T18:03:51;17.50;51.40
52963;DHT22;38827;53.024;6.596;2023-06-04T18:09:19;17.40;52.00
52963;DHT22;38827;53.024;6.596;2023-06-04T18:15:01;17.20;52.80
52963;DHT22;38827;53.024;6.596;2023-06-04T18:28:12;16.80;53.60
52963;DHT22;38827;53.024;6.596;2023-06-04T18:31:02;16.70;54.00
52963;DHT22;38827;53.024;6.596;2023-06-04T18:33:31;16.60;54.10
52963;DHT22;38827;53.024;6.596;2023-06-04T18:39:39;16.40;54.90
52963;DHT22;38827;53.024;6.596;2023-06-04T18:42:08;16.20;55.20
52963;DHT22;38827;53.024;6.596;2023-06-04T18:44:57;16.10;55.50
52963;DHT22;38827;53.024;6.596;2023-06-04T18:48:01;16.00;55.70
52963;DHT22;38827;53.024;6.596;2023-06-04T18:54:48;15.90;56.40
52963;DHT22;38827;53.024;6.596;2023-06-04T19:01:07;15.70;57.10
52963;DHT22;38827;53.024;6.596;2023-06-04T19:03:51;15.60;57.60
52963;DHT22;38827;53.024;6.596;2023-06-04T19:06:17;15.50;57.50
52963;DHT22;38827;53.024;6.596;2023-06-04T19:08:43;15.40;57.90
52963;DHT22;38827;53.024;6.596;2023-06-04T19:11:09;15.30;58.10
52963;DHT22;38827;53.024;6.596;2023-06-04T19:13:34;15.30;58.50